createdAt,value
2019-05-19T00:00:48.501Z,99.99
2019-05-19T00:01:48.498Z,99.99
2019-05-19T00:02:48.519Z,99.99
2019-05-19T00:03:48.490Z,99.99
2019-05-19T00:04:48.500Z,99.99
2019-05-19T00:05:48.484Z,99.99
2019-05-19T00:06:48.476Z,99.99
2019-05-19T00:07:48.471Z,99.99
2019-05-19T00:08:48.463Z,99.99
2019-05-19T00:09:48.463Z,99.99
2019-05-19T00:10:48.462Z,99.99
2019-05-19T00:11:48.458Z,99.99
2019-05-19T00:12:48.451Z,99.99
2019-05-19T00:13:48.446Z,99.99
2019-05-19T00:14:48.440Z,99.99
2019-05-19T00:15:48.433Z,99.99
2019-05-19T00:16:48.431Z,99.99
2019-05-19T00:17:48.427Z,99.99
2019-05-19T00:18:48.424Z,99.99
2019-05-19T00:19:48.414Z,99.99
2019-05-19T00:20:48.406Z,99.99
2019-05-19T00:21:48.399Z,99.99
2019-05-19T00:22:48.397Z,99.99
2019-05-19T00:23:48.390Z,99.99
2019-05-19T00:24:48.391Z,99.99
2019-05-19T00:25:48.391Z,99.99
2019-05-19T00:26:48.383Z,99.99
2019-05-19T00:27:48.386Z,99.99
2019-05-19T00:28:48.370Z,99.99
2019-05-19T00:29:48.365Z,99.99
2019-05-19T00:30:48.363Z,99.99
2019-05-19T00:31:48.360Z,99.99
2019-05-19T00:32:48.363Z,99.99
2019-05-19T00:33:48.349Z,99.99
2019-05-19T00:34:48.335Z,99.99
2019-05-19T00:35:48.332Z,99.99
2019-05-19T00:36:48.330Z,99.99
2019-05-19T00:37:48.326Z,99.99
2019-05-19T00:38:48.324Z,99.99
2019-05-19T00:39:48.315Z,99.99
2019-05-19T00:40:48.305Z,99.99
2019-05-19T00:41:48.302Z,99.99
2019-05-19T00:42:48.297Z,99.99
2019-05-19T00:43:48.293Z,99.99
2019-05-19T00:44:48.293Z,99.99
2019-05-19T00:45:48.288Z,99.99
2019-05-19T00:46:48.284Z,99.99
2019-05-19T00:47:48.274Z,99.99
2019-05-19T00:48:48.274Z,99.99
2019-05-19T00:49:48.268Z,99.99
2019-05-19T00:50:48.260Z,99.99
2019-05-19T00:51:48.297Z,99.99
2019-05-19T00:52:48.246Z,99.99
2019-05-19T00:53:48.243Z,99.99
2019-05-19T00:54:48.239Z,99.99
2019-05-19T00:55:48.232Z,99.99
2019-05-19T00:56:48.237Z,99.99
2019-05-19T00:57:48.227Z,99.99
2019-05-19T00:58:48.225Z,99.99
2019-05-19T00:59:48.217Z,99.99
2019-05-19T01:00:48.209Z,99.99
2019-05-19T01:01:48.203Z,99.99
2019-05-19T01:02:48.219Z,99.99
2019-05-19T01:03:48.206Z,99.99
2019-05-19T01:04:48.188Z,99.99
2019-05-19T01:05:48.194Z,99.99
2019-05-19T01:06:48.176Z,99.99
2019-05-19T01:07:48.171Z,99.99
2019-05-19T01:08:48.170Z,99.99
2019-05-19T01:09:48.164Z,99.99
2019-05-19T01:10:48.162Z,99.99
2019-05-19T01:11:48.154Z,99.99
2019-05-19T01:12:48.146Z,99.99
2019-05-19T01:13:48.142Z,99.99
2019-05-19T01:14:48.134Z,99.99
2019-05-19T01:15:48.128Z,99.99
2019-05-19T01:16:48.132Z,99.99
2019-05-19T01:17:48.122Z,99.99
2019-05-19T01:18:48.114Z,99.99
2019-05-19T01:19:55.558Z,99.99
2019-05-19T01:20:48.107Z,99.99
2019-05-19T01:21:48.104Z,99.99
2019-05-19T01:22:48.105Z,99.99
2019-05-19T01:23:48.093Z,99.99
2019-05-19T01:24:48.083Z,99.99
2019-05-19T01:25:48.080Z,99.99
2019-05-19T01:26:48.073Z,99.99
2019-05-19T01:27:48.068Z,99.99
2019-05-19T01:28:48.067Z,99.99
2019-05-19T01:29:48.062Z,99.99
2019-05-19T01:30:48.053Z,99.99
2019-05-19T01:31:48.050Z,99.99
2019-05-19T01:32:48.038Z,99.99
2019-05-19T01:33:48.068Z,99.99
2019-05-19T01:34:48.033Z,99.99
2019-05-19T01:35:48.030Z,99.99
2019-05-19T01:36:48.018Z,99.99
2019-05-19T01:37:48.015Z,99.99
2019-05-19T01:38:48.013Z,99.99
2019-05-19T01:39:48.005Z,99.99
2019-05-19T01:40:48.004Z,99.99
2019-05-19T01:41:48.051Z,99.99
2019-05-19T01:42:47.993Z,99.99
2019-05-19T01:43:47.992Z,99.99
2019-05-19T01:44:47.978Z,99.99
2019-05-19T01:45:47.974Z,99.99
2019-05-19T01:46:47.967Z,99.99
2019-05-19T01:47:47.959Z,99.99
2019-05-19T01:48:47.959Z,99.99
2019-05-19T01:49:47.954Z,99.99
2019-05-19T01:50:47.944Z,99.99
2019-05-19T01:51:47.939Z,99.99
2019-05-19T01:52:47.937Z,99.99
2019-05-19T01:53:47.931Z,99.99
2019-05-19T01:54:47.930Z,99.99
2019-05-19T01:55:47.922Z,99.99
2019-05-19T01:56:47.920Z,99.99
2019-05-19T01:57:47.912Z,99.99
2019-05-19T01:58:47.904Z,99.99
2019-05-19T01:59:47.900Z,99.99
2019-05-19T02:00:47.897Z,99.99
2019-05-19T02:01:47.894Z,99.99
2019-05-19T02:02:47.887Z,99.99
2019-05-19T02:03:47.879Z,99.99
2019-05-19T02:04:47.868Z,99.99
2019-05-19T02:05:47.863Z,99.99
2019-05-19T02:06:47.862Z,99.99
2019-05-19T02:07:47.855Z,99.99
2019-05-19T02:08:47.845Z,99.99
2019-05-19T02:09:47.842Z,99.99
2019-05-19T02:10:47.839Z,99.99
2019-05-19T02:11:47.831Z,99.99
2019-05-19T02:12:47.830Z,99.99
2019-05-19T02:13:47.823Z,99.99
2019-05-19T02:14:47.817Z,99.99
2019-05-19T02:15:47.813Z,99.99
2019-05-19T02:16:47.802Z,99.99
2019-05-19T02:17:47.795Z,99.99
2019-05-19T02:18:47.795Z,99.99
2019-05-19T02:19:47.787Z,99.99
2019-05-19T02:20:47.797Z,99.99
2019-05-19T02:21:47.782Z,99.99
2019-05-19T02:22:47.773Z,99.99
2019-05-19T02:23:47.766Z,99.99
2019-05-19T02:24:47.766Z,99.99
2019-05-19T02:25:47.770Z,99.99
2019-05-19T02:26:47.753Z,99.99
2019-05-19T02:27:47.747Z,99.99
2019-05-19T02:28:47.734Z,99.99
2019-05-19T02:29:47.731Z,99.99
2019-05-19T02:30:47.729Z,99.99
2019-05-19T02:31:47.719Z,99.99
2019-05-19T02:32:47.719Z,99.99
2019-05-19T02:33:47.714Z,99.99
2019-05-19T02:34:47.711Z,99.99
2019-05-19T02:35:47.704Z,99.99
2019-05-19T02:36:47.696Z,99.99
2019-05-19T02:37:47.689Z,99.99
2019-05-19T02:38:47.686Z,99.99
2019-05-19T02:39:47.683Z,99.99
2019-05-19T02:40:47.671Z,99.99
2019-05-19T02:41:47.666Z,99.99
2019-05-19T02:42:47.659Z,99.99
2019-05-19T02:43:47.653Z,99.99
2019-05-19T02:44:47.657Z,99.99
2019-05-19T02:45:47.646Z,99.99
2019-05-19T02:46:47.640Z,99.99
2019-05-19T02:47:47.633Z,99.99
2019-05-19T02:48:47.626Z,99.99
2019-05-19T02:49:47.619Z,99.99
2019-05-19T02:50:52.352Z,99.99
2019-05-19T02:51:47.611Z,99.99
2019-05-19T02:52:47.610Z,99.99
2019-05-19T02:53:47.604Z,99.99
2019-05-19T02:54:47.594Z,99.99
2019-05-19T02:55:47.588Z,99.99
2019-05-19T02:56:47.592Z,99.99
2019-05-19T02:57:47.581Z,99.99
2019-05-19T02:58:47.574Z,99.99
2019-05-19T02:59:47.567Z,99.99
2019-05-19T03:00:47.557Z,99.99
2019-05-19T03:01:47.552Z,99.99
2019-05-19T03:02:47.558Z,99.99
2019-05-19T03:03:47.538Z,99.99
2019-05-19T03:04:47.538Z,99.99
2019-05-19T03:05:47.538Z,99.99
2019-05-19T03:06:47.532Z,99.99
2019-05-19T03:07:47.525Z,99.99
2019-05-19T03:08:47.514Z,99.99
2019-05-19T03:09:47.509Z,99.99
2019-05-19T03:10:47.508Z,99.99
2019-05-19T03:11:47.500Z,99.99
2019-05-19T03:12:47.490Z,99.99
2019-05-19T03:13:47.486Z,99.99
2019-05-19T03:14:47.478Z,99.99
2019-05-19T03:15:47.469Z,99.99
2019-05-19T03:16:47.469Z,99.99
2019-05-19T03:17:47.467Z,99.99
2019-05-19T03:18:47.459Z,99.99
2019-05-19T03:19:47.453Z,99.99
2019-05-19T03:20:47.444Z,99.99
2019-05-19T03:21:47.436Z,99.99
2019-05-19T03:22:47.434Z,99.99
2019-05-19T03:23:47.427Z,99.99
2019-05-19T03:24:47.427Z,99.99
2019-05-19T03:25:47.423Z,99.99
2019-05-19T03:26:47.412Z,99.99
2019-05-19T03:27:47.404Z,99.99
2019-05-19T03:28:47.405Z,99.99
2019-05-19T03:29:47.399Z,99.99
2019-05-19T03:30:47.390Z,99.99
2019-05-19T03:31:47.385Z,99.99
2019-05-19T03:32:47.374Z,99.99
2019-05-19T03:33:47.366Z,99.99
2019-05-19T03:34:47.371Z,99.99
2019-05-19T03:35:47.355Z,99.99
2019-05-19T03:36:47.354Z,99.99
2019-05-19T03:37:47.364Z,99.99
2019-05-19T03:38:47.392Z,99.99
2019-05-19T03:39:47.337Z,99.99
2019-05-19T03:40:47.329Z,99.99
2019-05-19T03:41:47.322Z,99.99
2019-05-19T03:42:47.322Z,99.99
2019-05-19T03:43:47.314Z,99.99
2019-05-19T03:44:47.303Z,99.99
2019-05-19T03:45:47.301Z,99.99
2019-05-19T03:46:47.290Z,99.99
2019-05-19T03:47:47.293Z,99.99
2019-05-19T03:48:47.292Z,99.99
2019-05-19T03:49:47.276Z,99.99
2019-05-19T03:50:47.274Z,99.99
2019-05-19T03:51:47.265Z,99.99
2019-05-19T03:52:47.256Z,99.99
2019-05-19T03:53:47.248Z,99.99
2019-05-19T03:54:47.252Z,99.99
2019-05-19T03:55:47.240Z,99.99
2019-05-19T03:56:47.238Z,99.99
2019-05-19T03:57:47.230Z,99.99
2019-05-19T03:58:47.225Z,99.99
2019-05-19T03:59:47.219Z,99.99
2019-05-19T04:00:47.218Z,99.99
2019-05-19T04:01:47.210Z,99.99
2019-05-19T04:02:47.205Z,99.99
2019-05-19T04:03:47.201Z,99.99
2019-05-19T04:04:47.195Z,99.99
2019-05-19T04:05:47.178Z,99.99
2019-05-19T04:06:47.172Z,99.99
2019-05-19T04:07:47.165Z,99.99
2019-05-19T04:08:47.164Z,99.99
2019-05-19T04:09:47.159Z,99.99
2019-05-19T04:10:47.155Z,99.99
2019-05-19T04:11:47.168Z,99.99
2019-05-19T04:12:47.140Z,99.99
2019-05-19T04:13:47.142Z,99.99
2019-05-19T04:14:47.134Z,99.99
2019-05-19T04:15:47.128Z,99.99
2019-05-19T04:16:47.118Z,99.99
2019-05-19T04:17:47.113Z,99.99
2019-05-19T04:18:47.103Z,99.99
2019-05-19T04:19:47.097Z,99.99
2019-05-19T04:20:47.095Z,99.99
2019-05-19T04:21:49.309Z,99.99
2019-05-19T04:22:47.087Z,99.99
2019-05-19T04:23:47.085Z,99.99
2019-05-19T04:24:47.074Z,99.99
2019-05-19T04:25:47.066Z,99.99
2019-05-19T04:26:47.060Z,99.99
2019-05-19T04:27:47.052Z,99.99
2019-05-19T04:28:47.049Z,99.99
2019-05-19T04:29:47.044Z,99.99
2019-05-19T04:30:47.040Z,99.99
2019-05-19T04:31:47.028Z,99.99
2019-05-19T04:32:47.029Z,99.99
2019-05-19T04:33:47.022Z,99.99
2019-05-19T04:34:47.022Z,99.99
2019-05-19T04:35:47.015Z,99.99
2019-05-19T04:36:47.004Z,99.99
2019-05-19T04:37:46.999Z,99.99
2019-05-19T04:38:46.992Z,99.99
2019-05-19T04:39:46.988Z,99.99
2019-05-19T04:40:46.986Z,99.99
2019-05-19T04:41:46.984Z,99.99
2019-05-19T04:42:46.977Z,99.99
2019-05-19T04:43:46.968Z,99.99
2019-05-19T04:44:46.960Z,99.99
2019-05-19T04:45:46.956Z,99.99
2019-05-19T04:46:46.959Z,99.99
2019-05-19T04:47:46.947Z,99.99
2019-05-19T04:48:46.941Z,99.99
2019-05-19T04:49:46.934Z,99.99
2019-05-19T04:50:46.933Z,99.99
2019-05-19T04:51:46.929Z,99.99
2019-05-19T04:52:46.927Z,99.99
2019-05-19T04:53:46.921Z,99.99
2019-05-19T04:54:46.928Z,99.99
2019-05-19T04:55:46.914Z,99.99
2019-05-19T04:56:46.905Z,99.99
2019-05-19T04:57:46.901Z,99.99
2019-05-19T04:58:46.895Z,99.99
2019-05-19T04:59:46.890Z,99.99
2019-05-19T05:00:46.890Z,99.99
2019-05-19T05:01:46.885Z,99.99
2019-05-19T05:02:46.878Z,99.99
2019-05-19T05:03:46.873Z,99.99
2019-05-19T05:04:46.872Z,99.99
2019-05-19T05:05:46.870Z,99.99
2019-05-19T05:06:46.868Z,99.99
2019-05-19T05:07:46.862Z,99.99
2019-05-19T05:08:46.858Z,99.99
2019-05-19T05:09:46.850Z,99.99
2019-05-19T05:10:46.845Z,99.99
2019-05-19T05:11:46.844Z,99.99
2019-05-19T05:12:46.842Z,99.99
2019-05-19T05:13:46.838Z,99.99
2019-05-19T05:14:46.832Z,99.99
2019-05-19T05:15:46.828Z,99.99
2019-05-19T05:16:46.820Z,99.99
2019-05-19T05:17:46.819Z,99.99
2019-05-19T05:18:47.971Z,99.99
2019-05-19T05:19:46.813Z,99.99
2019-05-19T05:20:46.807Z,99.99
2019-05-19T05:21:46.803Z,99.99
2019-05-19T05:22:46.802Z,99.99
2019-05-19T05:23:46.799Z,99.99
2019-05-19T05:24:46.800Z,99.99
2019-05-19T05:25:46.797Z,99.99
2019-05-19T05:26:46.791Z,99.99
2019-05-19T05:27:46.788Z,99.99
2019-05-19T05:28:46.781Z,99.99
2019-05-19T05:29:46.782Z,99.99
2019-05-19T05:30:46.780Z,99.99
2019-05-19T05:31:46.776Z,99.99
2019-05-19T05:32:46.779Z,99.99
2019-05-19T05:33:46.778Z,99.99
2019-05-19T05:34:46.771Z,99.99
2019-05-19T05:35:46.770Z,99.99
2019-05-19T05:36:46.770Z,99.99
2019-05-19T05:37:46.770Z,99.99
2019-05-19T05:38:46.766Z,99.99
2019-05-19T05:39:46.762Z,99.99
2019-05-19T05:40:46.756Z,99.99
2019-05-19T05:41:46.755Z,99.99
2019-05-19T05:42:46.754Z,99.99
2019-05-19T05:43:46.750Z,99.99
2019-05-19T05:44:46.754Z,99.99
2019-05-19T05:45:46.753Z,99.99
2019-05-19T05:46:46.754Z,99.99
2019-05-19T05:47:46.753Z,99.99
2019-05-19T05:48:46.748Z,99.99
2019-05-19T05:49:50.140Z,99.99
2019-05-19T05:50:46.751Z,99.99
2019-05-19T05:51:46.748Z,99.99
2019-05-19T05:52:46.744Z,99.99
2019-05-19T05:53:46.745Z,99.60
2019-05-19T05:54:46.745Z,97.38
2019-05-19T05:55:46.744Z,97.24
2019-05-19T05:56:46.746Z,97.28
2019-05-19T05:57:46.745Z,96.31
2019-05-19T05:58:46.747Z,96.17
2019-05-19T05:59:46.746Z,92.83
2019-05-19T06:00:46.743Z,92.64
2019-05-19T06:01:46.743Z,92.06
2019-05-19T06:02:46.750Z,91.04
2019-05-19T06:03:46.750Z,90.84
2019-05-19T06:04:46.752Z,91.38
2019-05-19T06:05:46.761Z,90.41
2019-05-19T06:06:46.754Z,89.77
2019-05-19T06:07:46.753Z,89.29
2019-05-19T06:08:46.760Z,88.81
2019-05-19T06:09:46.761Z,87.68
2019-05-19T06:10:46.767Z,87.06
2019-05-19T06:11:46.762Z,86.33
2019-05-19T06:12:46.761Z,86.72
2019-05-19T06:13:49.377Z,85.94
2019-05-19T06:14:46.826Z,85.99
2019-05-19T06:15:46.768Z,84.72
2019-05-19T06:16:46.776Z,85.50
2019-05-19T06:17:46.780Z,84.92
2019-05-19T06:18:46.785Z,82.78
2019-05-19T06:19:46.790Z,83.80
2019-05-19T06:20:46.791Z,82.15
2019-05-19T06:21:46.791Z,81.76
2019-05-19T06:22:55.844Z,79.63
2019-05-19T06:23:46.797Z,80.34
2019-05-19T06:24:46.798Z,79.76
2019-05-19T06:25:46.813Z,79.66
2019-05-19T06:26:46.802Z,79.37
2019-05-19T06:27:46.806Z,79.76
2019-05-19T06:28:46.812Z,82.38
2019-05-19T06:29:46.815Z,81.02
2019-05-19T06:30:46.823Z,77.82
2019-05-19T06:31:46.824Z,80.05
2019-05-19T06:32:46.826Z,76.95
2019-05-19T06:33:46.831Z,79.12
2019-05-19T06:34:46.836Z,78.34
2019-05-19T06:35:46.834Z,76.60
2019-05-19T06:36:46.844Z,76.31
2019-05-19T06:37:46.852Z,76.98
2019-05-19T06:38:46.849Z,74.50
2019-05-19T06:39:46.850Z,75.95
2019-05-19T06:40:46.857Z,74.63
2019-05-19T06:41:46.861Z,74.86
2019-05-19T06:42:46.883Z,74.32
2019-05-19T06:43:46.869Z,72.41
2019-05-19T06:44:46.881Z,70.26
2019-05-19T06:45:46.879Z,68.55
2019-05-19T06:46:46.881Z,67.22
2019-05-19T06:47:46.883Z,66.66
2019-05-19T06:48:46.893Z,66.50
2019-05-19T06:49:46.898Z,63.48
2019-05-19T06:50:46.899Z,66.53
2019-05-19T06:51:46.904Z,67.25
2019-05-19T06:52:46.905Z,64.00
2019-05-19T06:53:46.911Z,62.92
2019-05-19T06:54:46.923Z,64.87
2019-05-19T06:55:46.926Z,68.00
2019-05-19T06:56:46.926Z,69.13
2019-05-19T06:57:46.932Z,70.76
2019-05-19T06:58:46.942Z,70.37
2019-05-19T06:59:46.948Z,68.97
2019-05-19T07:00:46.957Z,69.42
2019-05-19T07:01:46.964Z,67.96
2019-05-19T07:02:46.969Z,72.21
2019-05-19T07:03:46.972Z,72.76
2019-05-19T07:04:46.976Z,73.89
2019-05-19T07:05:46.980Z,73.30
2019-05-19T07:06:47.004Z,72.39
2019-05-19T07:07:46.989Z,74.54
2019-05-19T07:08:47.000Z,75.08
2019-05-19T07:09:57.997Z,74.37
2019-05-19T07:10:47.003Z,76.01
2019-05-19T07:11:47.011Z,77.47
2019-05-19T07:12:47.017Z,77.34
2019-05-19T07:13:47.023Z,78.56
2019-05-19T07:14:47.029Z,76.72
2019-05-19T07:15:47.042Z,78.07
2019-05-19T07:16:47.037Z,78.23
2019-05-19T07:17:47.038Z,77.45
2019-05-19T07:18:47.043Z,77.98
2019-05-19T07:19:47.045Z,77.59
2019-05-19T07:20:47.053Z,77.98
2019-05-19T07:21:47.056Z,76.95
2019-05-19T07:22:47.060Z,75.14
2019-05-19T07:23:47.061Z,74.11
2019-05-19T07:24:47.062Z,72.59
2019-05-19T07:25:47.065Z,70.78
2019-05-19T07:26:47.072Z,69.35
2019-05-19T07:27:47.077Z,68.90
2019-05-19T07:28:47.083Z,66.47
2019-05-19T07:29:47.081Z,67.18
2019-05-19T07:30:47.089Z,67.38
2019-05-19T07:31:47.096Z,66.31
2019-05-19T07:32:47.108Z,67.18
2019-05-19T07:33:47.105Z,66.24
2019-05-19T07:34:47.103Z,67.80
2019-05-19T07:35:47.109Z,66.76
2019-05-19T07:36:47.120Z,66.08
2019-05-19T07:37:47.124Z,66.66
2019-05-19T07:38:47.130Z,65.69
2019-05-19T07:39:47.136Z,66.69
2019-05-19T07:40:47.138Z,65.11
2019-05-19T07:41:47.144Z,65.20
2019-05-19T07:42:47.153Z,66.53
2019-05-19T07:43:47.158Z,65.85
2019-05-19T07:44:47.226Z,67.90
2019-05-19T07:45:47.166Z,68.55
2019-05-19T07:46:47.171Z,68.71
2019-05-19T07:47:47.174Z,68.61
2019-05-19T07:48:47.186Z,69.29
2019-05-19T07:49:47.189Z,66.93
2019-05-19T07:50:47.200Z,65.82
2019-05-19T07:51:47.201Z,66.02
2019-05-19T07:52:47.210Z,67.28
2019-05-19T07:53:47.207Z,68.64
2019-05-19T07:54:47.216Z,68.51
2019-05-19T07:55:47.224Z,69.19
2019-05-19T07:56:47.235Z,70.26
2019-05-19T07:57:47.241Z,69.19
2019-05-19T07:58:47.237Z,70.32
2019-05-19T07:59:47.240Z,70.81
2019-05-19T08:00:47.249Z,70.71
2019-05-19T08:01:47.253Z,70.39
2019-05-19T08:02:47.286Z,72.23
2019-05-19T08:03:47.261Z,73.00
2019-05-19T08:04:47.338Z,73.88
2019-05-19T08:05:47.266Z,74.46
2019-05-19T08:06:47.282Z,75.04
2019-05-19T08:07:47.306Z,75.04
2019-05-19T08:08:47.281Z,75.34
2019-05-19T08:09:47.287Z,75.08
2019-05-19T08:10:47.292Z,73.97
2019-05-19T08:11:47.299Z,72.91
2019-05-19T08:12:47.301Z,74.07
2019-05-19T08:13:47.320Z,74.65
2019-05-19T08:14:47.319Z,73.94
2019-05-19T08:15:47.314Z,73.58
2019-05-19T08:16:47.316Z,73.10
2019-05-19T08:17:47.318Z,74.27
2019-05-19T08:18:47.320Z,74.95
2019-05-19T08:19:47.324Z,74.65
2019-05-19T08:20:47.332Z,75.53
2019-05-19T08:21:47.341Z,74.33
2019-05-19T08:22:47.339Z,73.84
2019-05-19T08:23:59.845Z,74.13
2019-05-19T08:24:47.341Z,74.43
2019-05-19T08:25:47.346Z,74.23
2019-05-19T08:26:47.353Z,74.56
2019-05-19T08:27:47.358Z,73.00
2019-05-19T08:28:47.364Z,72.13
2019-05-19T08:29:47.383Z,72.61
2019-05-19T08:30:47.372Z,74.56
2019-05-19T08:31:47.372Z,75.43
2019-05-19T08:32:47.379Z,74.85
2019-05-19T08:33:47.394Z,74.69
2019-05-19T08:34:47.385Z,74.01
2019-05-19T08:35:47.388Z,72.17
2019-05-19T08:36:47.389Z,71.03
2019-05-19T08:37:47.393Z,70.20
2019-05-19T08:38:47.401Z,69.16
2019-05-19T08:39:47.408Z,67.83
2019-05-19T08:40:47.422Z,68.35
2019-05-19T08:41:47.419Z,64.94
2019-05-19T08:42:47.418Z,62.22
2019-05-19T08:43:47.425Z,61.34
2019-05-19T08:44:47.424Z,62.32
2019-05-19T08:45:47.430Z,63.15
2019-05-19T08:46:47.437Z,61.89
2019-05-19T08:47:47.443Z,60.19
2019-05-19T08:48:47.443Z,56.10
2019-05-19T08:49:47.450Z,56.41
2019-05-19T08:50:47.457Z,55.86
2019-05-19T08:51:47.462Z,56.10
2019-05-19T08:52:47.473Z,54.47
2019-05-19T08:53:47.483Z,52.73
2019-05-19T08:54:47.488Z,52.25
2019-05-19T08:55:47.493Z,52.59
2019-05-19T08:56:47.498Z,52.55
2019-05-19T08:57:47.504Z,50.81
2019-05-19T08:58:47.517Z,49.85
2019-05-19T08:59:47.521Z,48.84
2019-05-19T09:00:47.530Z,46.93
2019-05-19T09:01:47.539Z,46.94
2019-05-19T09:02:47.544Z,47.86
2019-05-19T09:03:47.552Z,48.74
2019-05-19T09:04:47.567Z,46.04
2019-05-19T09:05:48.042Z,46.95
2019-05-19T09:06:47.587Z,44.49
2019-05-19T09:07:47.601Z,44.41
2019-05-19T09:08:47.607Z,45.72
2019-05-19T09:09:47.672Z,48.07
2019-05-19T09:10:47.626Z,47.65
2019-05-19T09:11:48.061Z,48.43
2019-05-19T09:12:47.651Z,48.26
2019-05-19T09:13:47.663Z,48.68
2019-05-19T09:14:47.672Z,49.07
2019-05-19T09:15:47.686Z,48.87
2019-05-19T09:16:47.689Z,48.36
2019-05-19T09:17:47.706Z,47.36
2019-05-19T09:18:47.717Z,47.65
2019-05-19T09:19:47.724Z,47.16
2019-05-19T09:20:47.734Z,48.65
2019-05-19T09:21:47.742Z,49.07
2019-05-19T09:22:47.756Z,48.63
2019-05-19T09:23:47.768Z,47.45
2019-05-19T09:24:47.781Z,48.70
2019-05-19T09:25:47.792Z,48.68
2019-05-19T09:26:47.804Z,49.16
2019-05-19T09:27:47.811Z,49.58
2019-05-19T09:28:47.817Z,50.73
2019-05-19T09:29:47.827Z,49.55
2019-05-19T09:30:47.835Z,50.83
2019-05-19T09:31:47.843Z,51.59
2019-05-19T09:32:47.858Z,51.88
2019-05-19T09:33:47.869Z,50.88
2019-05-19T09:34:47.872Z,51.95
2019-05-19T09:35:47.883Z,52.15
2019-05-19T09:36:47.898Z,51.95
2019-05-19T09:37:47.906Z,51.51
2019-05-19T09:38:47.917Z,52.97
2019-05-19T09:39:47.924Z,53.39
2019-05-19T09:40:47.931Z,53.42
2019-05-19T09:41:47.944Z,53.42
2019-05-19T09:42:47.947Z,54.98
2019-05-19T09:43:47.958Z,53.52
2019-05-19T09:44:47.968Z,53.52
2019-05-19T09:45:47.975Z,54.61
2019-05-19T09:46:47.986Z,53.83
2019-05-19T09:47:47.996Z,56.18
2019-05-19T09:48:47.998Z,56.18
2019-05-19T09:49:48.007Z,55.88
2019-05-19T09:50:48.022Z,56.86
2019-05-19T09:51:48.025Z,57.42
2019-05-19T09:52:48.032Z,56.37
2019-05-19T09:53:48.038Z,55.00
2019-05-19T09:54:48.044Z,55.88
2019-05-19T09:55:48.051Z,56.76
2019-05-19T09:56:48.062Z,57.13
2019-05-19T09:57:48.071Z,57.64
2019-05-19T09:58:48.076Z,58.72
2019-05-19T09:59:48.089Z,57.71
2019-05-19T10:00:48.087Z,55.79
2019-05-19T10:01:48.096Z,55.79
2019-05-19T10:02:48.104Z,56.37
2019-05-19T10:03:48.110Z,56.18
2019-05-19T10:04:48.122Z,56.18
2019-05-19T10:05:48.132Z,55.96
2019-05-19T10:06:48.154Z,56.37
2019-05-19T10:07:48.139Z,56.57
2019-05-19T10:08:48.149Z,56.15
2019-05-19T10:09:48.158Z,54.53
2019-05-19T10:10:48.162Z,53.60
2019-05-19T10:11:48.166Z,54.19
2019-05-19T10:12:48.170Z,56.14
2019-05-19T10:13:48.176Z,56.23
2019-05-19T10:14:48.185Z,55.85
2019-05-19T10:15:48.189Z,57.40
2019-05-19T10:16:48.233Z,56.43
2019-05-19T10:17:48.205Z,56.33
2019-05-19T10:18:48.217Z,56.65
2019-05-19T10:19:48.223Z,56.10
2019-05-19T10:20:50.429Z,56.00
2019-05-19T10:21:48.228Z,55.02
2019-05-19T10:22:48.240Z,56.12
2019-05-19T10:23:48.247Z,56.81
2019-05-19T10:25:04.167Z,57.39
2019-05-19T10:25:48.256Z,60.03
2019-05-19T10:26:48.265Z,59.15
2019-05-19T10:27:48.265Z,59.28
2019-05-19T10:28:48.274Z,59.47
2019-05-19T10:29:48.281Z,57.71
2019-05-19T10:30:48.290Z,56.35
2019-05-19T10:31:48.294Z,57.25
2019-05-19T10:32:48.303Z,57.64
2019-05-19T10:33:48.392Z,55.91
2019-05-19T10:34:48.314Z,56.50
2019-05-19T10:35:48.323Z,56.13
2019-05-19T10:36:48.332Z,54.57
2019-05-19T10:37:48.350Z,53.00
2019-05-19T10:38:48.343Z,52.25
2019-05-19T10:39:48.349Z,53.52
2019-05-19T10:40:48.361Z,53.84
2019-05-19T10:41:48.367Z,52.67
2019-05-19T10:42:48.372Z,52.20
2019-05-19T10:43:48.379Z,51.93
2019-05-19T10:44:48.382Z,50.59
2019-05-19T10:45:48.399Z,50.39
2019-05-19T10:46:48.403Z,50.34
2019-05-19T10:47:48.415Z,49.16
2019-05-19T10:48:48.424Z,48.79
2019-05-19T10:49:48.431Z,48.43
2019-05-19T10:50:48.438Z,47.25
2019-05-19T10:51:48.448Z,47.27
2019-05-19T10:52:48.455Z,46.78
2019-05-19T10:53:48.462Z,46.70
2019-05-19T10:54:48.476Z,45.57
2019-05-19T10:55:48.483Z,44.02
2019-05-19T10:56:48.494Z,44.05
2019-05-19T10:57:48.500Z,46.35
2019-05-19T10:58:48.514Z,45.76
2019-05-19T10:59:48.523Z,44.21
2019-05-19T11:00:48.547Z,43.52
2019-05-19T11:01:48.555Z,42.55
2019-05-19T11:02:48.561Z,40.61
2019-05-19T11:03:48.573Z,39.92
2019-05-19T11:04:48.580Z,40.33
2019-05-19T11:05:48.593Z,42.42
2019-05-19T11:06:48.606Z,41.41
2019-05-19T11:07:48.620Z,40.58
2019-05-19T11:08:48.631Z,41.94
2019-05-19T11:09:48.643Z,42.63
2019-05-19T11:10:48.651Z,43.23
2019-05-19T11:11:48.665Z,43.52
2019-05-19T11:12:48.681Z,44.01
2019-05-19T11:13:48.694Z,45.68
2019-05-19T11:14:48.708Z,44.11
2019-05-19T11:15:48.722Z,42.52
2019-05-19T11:16:48.729Z,42.20
2019-05-19T11:17:48.762Z,44.15
2019-05-19T11:18:48.752Z,44.83
2019-05-19T11:19:48.765Z,47.00
2019-05-19T11:20:48.780Z,46.70
2019-05-19T11:21:48.793Z,47.27
2019-05-19T11:22:48.807Z,46.97
2019-05-19T11:23:48.823Z,47.83
2019-05-19T11:24:48.820Z,47.15
2019-05-19T11:25:51.336Z,46.93
2019-05-19T11:26:48.845Z,47.79
2019-05-19T11:27:48.855Z,48.67
2019-05-19T11:28:48.860Z,49.04
2019-05-19T11:29:48.873Z,48.94
2019-05-19T11:30:48.884Z,50.68
2019-05-19T11:31:48.893Z,49.90
2019-05-19T11:32:48.908Z,48.99
2019-05-19T11:33:48.917Z,49.95
2019-05-19T11:34:48.927Z,48.87
2019-05-19T11:35:48.932Z,48.72
2019-05-19T11:36:48.939Z,50.10
2019-05-19T11:37:48.947Z,49.21
2019-05-19T11:38:48.956Z,49.87
2019-05-19T11:39:48.963Z,51.44
2019-05-19T11:40:48.975Z,53.03
2019-05-19T11:41:48.985Z,53.72
2019-05-19T11:42:48.986Z,53.39
2019-05-19T11:43:48.994Z,52.61
2019-05-19T11:44:49.005Z,51.05
2019-05-19T11:45:49.027Z,52.81
2019-05-19T11:46:49.022Z,52.81
2019-05-19T11:47:49.030Z,53.59
2019-05-19T11:48:49.033Z,53.88
2019-05-19T11:49:49.051Z,55.06
2019-05-19T11:50:49.050Z,53.20
2019-05-19T11:51:49.057Z,53.30
2019-05-19T11:52:49.067Z,52.29
2019-05-19T11:53:49.072Z,51.71
2019-05-19T11:54:49.078Z,51.71
2019-05-19T11:55:49.085Z,51.81
2019-05-19T11:56:49.086Z,52.00
2019-05-19T11:57:49.094Z,52.20
2019-05-19T11:58:49.107Z,51.83
2019-05-19T11:59:49.110Z,51.15
2019-05-19T12:00:49.114Z,50.93
2019-05-19T12:01:49.120Z,51.71
2019-05-19T12:02:49.133Z,50.02
2019-05-19T12:03:49.135Z,47.09
2019-05-19T12:04:49.146Z,49.16
2019-05-19T12:05:49.152Z,50.93
2019-05-19T12:06:49.158Z,53.47
2019-05-19T12:07:49.171Z,51.42
2019-05-19T12:08:49.170Z,48.19
2019-05-19T12:09:49.175Z,47.67
2019-05-19T12:10:49.180Z,45.14
2019-05-19T12:11:49.184Z,46.89
2019-05-19T12:12:49.196Z,47.48
2019-05-19T12:13:49.201Z,48.65
2019-05-19T12:14:49.204Z,47.19
2019-05-19T12:15:49.210Z,47.38
2019-05-19T12:16:49.315Z,47.83
2019-05-19T12:17:49.227Z,48.66
2019-05-19T12:18:49.237Z,48.07
2019-05-19T12:19:49.242Z,46.30
2019-05-19T12:20:49.245Z,48.24
2019-05-19T12:21:49.253Z,47.34
2019-05-19T12:22:49.256Z,45.20
2019-05-19T12:23:49.261Z,44.89
2019-05-19T12:24:49.270Z,45.18
2019-05-19T12:25:49.277Z,44.79
2019-05-19T12:26:49.280Z,46.23
2019-05-19T12:27:49.286Z,45.84
2019-05-19T12:28:49.289Z,46.59
2019-05-19T12:29:49.292Z,45.11
2019-05-19T12:30:49.304Z,45.21
2019-05-19T12:31:49.307Z,46.23
2019-05-19T12:32:49.308Z,47.40
2019-05-19T12:33:51.827Z,47.40
2019-05-19T12:34:49.321Z,48.75
2019-05-19T12:35:49.340Z,49.27
2019-05-19T12:36:49.334Z,49.29
2019-05-19T12:37:49.340Z,47.64
2019-05-19T12:38:49.345Z,49.12
2019-05-19T12:39:49.350Z,50.38
2019-05-19T12:40:49.350Z,51.19
2019-05-19T12:41:49.355Z,50.58
2019-05-19T12:42:49.357Z,50.41
2019-05-19T12:43:49.360Z,48.07
2019-05-19T12:44:49.369Z,47.49
2019-05-19T12:45:49.390Z,47.10
2019-05-19T12:46:49.380Z,47.00
2019-05-19T12:47:49.379Z,46.81
2019-05-19T12:48:49.389Z,48.10
2019-05-19T12:49:49.393Z,48.10
2019-05-19T12:50:49.433Z,46.44
2019-05-19T12:51:49.405Z,46.42
2019-05-19T12:52:49.408Z,46.96